sensor_id;sensor_type;location;lat;lon;timestamp;pressure;altitude;pressure_sealevel;temperature
71630;BMP280;59479;51.902;8.212;2023-06-22T00:02:04;101184.06;;;24.32
71630;BMP280;59479;51.902;8.212;2023-06-22T00:04:29;101178.41;;;24.24
71630;BMP280;59479;51.902;8.212;2023-06-22T00:06:55;101179.59;;;24.17
71630;BMP280;59479;51.902;8.212;2023-06-22T00:09:20;101170.22;;;24.16
71630;BMP280;59479;51.902;8.212;2023-06-22T00:11:45;101169.25;;;24.19
71630;BMP280;59479;51.902;8.212;2023-06-22T00:14:10;101171.41;;;24.09
71630;BMP280;59479;51.902;8.212;2023-06-22T00:16:36;101165.66;;;24.05
71630;BMP280;59479;51.902;8.212;2023-06-22T00:19:01;101158.69;;;24.06
71630;BMP280;59479;51.902;8.212;2023-06-22T00:21:28;101154.31;;;24.08
71630;BMP280;59479;51.902;8.212;2023-06-22T00:23:53;101156.88;;;24.08
71630;BMP280;59479;51.902;8.212;2023-06-22T00:26:19;101157.94;;;24.05
71630;BMP280;59479;51.902;8.212;2023-06-22T00:28:44;101152.88;;;24.03
71630;BMP280;59479;51.902;8.212;2023-06-22T00:31:10;101147.69;;;24.05
71630;BMP280;59479;51.902;8.212;2023-06-22T00:33:35;101140.03;;;24.03
71630;BMP280;59479;51.902;8.212;2023-06-22T00:36:00;101143.53;;;24.02
71630;BMP280;59479;51.902;8.212;2023-06-22T00:38:28;101127.50;;;23.97
71630;BMP280;59479;51.902;8.212;2023-06-22T00:40:53;101116.88;;;23.86
71630;BMP280;59479;51.902;8.212;2023-06-22T00:43:18;101122.22;;;23.82
71630;BMP280;59479;51.902;8.212;2023-06-22T00:45:44;101126.47;;;23.83
71630;BMP280;59479;51.902;8.212;2023-06-22T00:48:09;101140.91;;;23.85
71630;BMP280;59479;51.902;8.212;2023-06-22T00:50:35;101139.44;;;23.80
71630;BMP280;59479;51.902;8.212;2023-06-22T00:53:03;101138.75;;;23.76
71630;BMP280;59479;51.902;8.212;2023-06-22T00:55:38;101131.81;;;23.78
71630;BMP280;59479;51.902;8.212;2023-06-22T00:58:06;101130.34;;;23.73
71630;BMP280;59479;51.902;8.212;2023-06-22T01:00:33;101126.34;;;23.67
71630;BMP280;59479;51.902;8.212;2023-06-22T01:02:59;101130.72;;;23.65
71630;BMP280;59479;51.902;8.212;2023-06-22T01:05:24;101133.28;;;23.65
71630;BMP280;59479;51.902;8.212;2023-06-22T01:13:27;101123.97;;;23.63
71630;BMP280;59479;51.902;8.212;2023-06-22T01:16:03;101127.63;;;23.58
71630;BMP280;59479;51.902;8.212;2023-06-22T01:18:31;101122.00;;;23.50
71630;BMP280;59479;51.902;8.212;2023-06-22T01:20:58;101127.25;;;23.47
71630;BMP280;59479;51.902;8.212;2023-06-22T01:23:36;101129.06;;;23.45
71630;BMP280;59479;51.902;8.212;2023-06-22T01:26:17;101129.06;;;23.45
71630;BMP280;59479;51.902;8.212;2023-06-22T01:28:52;101122.13;;;23.47
71630;BMP280;59479;51.902;8.212;2023-06-22T01:31:20;101124.91;;;23.42
71630;BMP280;59479;51.902;8.212;2023-06-22T01:33:53;101122.53;;;23.38
71630;BMP280;59479;51.902;8.212;2023-06-22T01:36:21;101136.25;;;23.37
71630;BMP280;59479;51.902;8.212;2023-06-22T01:38:47;101132.94;;;23.35
71630;BMP280;59479;51.902;8.212;2023-06-22T01:41:13;101127.03;;;23.33
71630;BMP280;59479;51.902;8.212;2023-06-22T01:43:38;101132.31;;;23.30
71630;BMP280;59479;51.902;8.212;2023-06-22T01:46:04;101134.75;;;23.33
71630;BMP280;59479;51.902;8.212;2023-06-22T01:48:30;101117.66;;;23.32
71630;BMP280;59479;51.902;8.212;2023-06-22T01:53:31;101135.72;;;23.30
71630;BMP280;59479;51.902;8.212;2023-06-22T01:55:59;101140.13;;;23.27
71630;BMP280;59479;51.902;8.212;2023-06-22T01:58:26;101135.16;;;23.24
71630;BMP280;59479;51.902;8.212;2023-06-22T02:01:13;101141.22;;;23.21
71630;BMP280;59479;51.902;8.212;2023-06-22T02:03:46;101136.97;;;23.22
71630;BMP280;59479;51.902;8.212;2023-06-22T02:06:24;101136.16;;;23.20
71630;BMP280;59479;51.902;8.212;2023-06-22T02:08:55;101138.03;;;23.17
71630;BMP280;59479;51.902;8.212;2023-06-22T02:11:24;101139.78;;;23.16
71630;BMP280;59479;51.902;8.212;2023-06-22T02:13:52;101146.47;;;23.19
71630;BMP280;59479;51.902;8.212;2023-06-22T02:16:19;101150.78;;;23.18
71630;BMP280;59479;51.902;8.212;2023-06-22T02:18:48;101137.63;;;23.07
71630;BMP280;59479;51.902;8.212;2023-06-22T02:21:16;101142.75;;;23.07
71630;BMP280;59479;51.902;8.212;2023-06-22T02:23:41;101136.75;;;23.07
71630;BMP280;59479;51.902;8.212;2023-06-22T02:26:07;101133.31;;;23.08
71630;BMP280;59479;51.902;8.212;2023-06-22T02:28:32;101145.25;;;23.09
71630;BMP280;59479;51.902;8.212;2023-06-22T02:30:58;101150.69;;;23.01
71630;BMP280;59479;51.902;8.212;2023-06-22T02:33:23;101154.06;;;23.02
71630;BMP280;59479;51.902;8.212;2023-06-22T02:35:48;101146.19;;;23.06
71630;BMP280;59479;51.902;8.212;2023-06-22T02:38:14;101144.59;;;23.04
71630;BMP280;59479;51.902;8.212;2023-06-22T02:40:40;101145.69;;;22.98
71630;BMP280;59479;51.902;8.212;2023-06-22T02:43:05;101143.09;;;22.98
71630;BMP280;59479;51.902;8.212;2023-06-22T02:45:31;101143.06;;;23.00
71630;BMP280;59479;51.902;8.212;2023-06-22T02:47:56;101137.34;;;22.93
71630;BMP280;59479;51.902;8.212;2023-06-22T02:50:21;101133.97;;;22.93
71630;BMP280;59479;51.902;8.212;2023-06-22T02:52:47;101131.47;;;22.91
71630;BMP280;59479;51.902;8.212;2023-06-22T02:55:12;101134.94;;;22.90
71630;BMP280;59479;51.902;8.212;2023-06-22T02:57:37;101126.34;;;22.90
71630;BMP280;59479;51.902;8.212;2023-06-22T03:00:11;101130.03;;;22.84
71630;BMP280;59479;51.902;8.212;2023-06-22T03:02:46;101130.84;;;22.85
71630;BMP280;59479;51.902;8.212;2023-06-22T03:05:12;101127.34;;;22.87
71630;BMP280;59479;51.902;8.212;2023-06-22T03:07:43;101118.94;;;22.84
71630;BMP280;59479;51.902;8.212;2023-06-22T03:10:10;101124.13;;;22.82
71630;BMP280;59479;51.902;8.212;2023-06-22T03:12:37;101122.50;;;22.80
71630;BMP280;59479;51.902;8.212;2023-06-22T03:15:12;101125.28;;;22.76
71630;BMP280;59479;51.902;8.212;2023-06-22T03:17:42;101130.53;;;22.73
71630;BMP280;59479;51.902;8.212;2023-06-22T03:20:09;101133.22;;;22.70
71630;BMP280;59479;51.902;8.212;2023-06-22T03:22:39;101125.72;;;22.65
71630;BMP280;59479;51.902;8.212;2023-06-22T03:25:05;101117.97;;;22.67
71630;BMP280;59479;51.902;8.212;2023-06-22T03:27:44;101122.19;;;22.68
71630;BMP280;59479;51.902;8.212;2023-06-22T03:30:11;101122.31;;;22.65
71630;BMP280;59479;51.902;8.212;2023-06-22T03:32:37;101124.06;;;22.64
71630;BMP280;59479;51.902;8.212;2023-06-22T03:35:02;101118.09;;;22.64
71630;BMP280;59479;51.902;8.212;2023-06-22T03:37:28;101118.22;;;22.61
71630;BMP280;59479;51.902;8.212;2023-06-22T03:39:54;101126.03;;;22.58
71630;BMP280;59479;51.902;8.212;2023-06-22T03:42:19;101121.03;;;22.55
71630;BMP280;59479;51.902;8.212;2023-06-22T03:44:45;101122.66;;;22.57
71630;BMP280;59479;51.902;8.212;2023-06-22T03:50:22;101130.50;;;22.53
71630;BMP280;59479;51.902;8.212;2023-06-22T03:52:48;101121.94;;;22.54
71630;BMP280;59479;51.902;8.212;2023-06-22T03:55:13;101123.66;;;22.53
71630;BMP280;59479;51.902;8.212;2023-06-22T03:57:38;101117.47;;;22.59
71630;BMP280;59479;51.902;8.212;2023-06-22T04:00:04;101119.13;;;22.60
71630;BMP280;59479;51.902;8.212;2023-06-22T04:02:33;101115.84;;;22.56
71630;BMP280;59479;51.902;8.212;2023-06-22T04:04:58;101120.22;;;22.54
71630;BMP280;59479;51.902;8.212;2023-06-22T04:07:24;101110.72;;;22.56
71630;BMP280;59479;51.902;8.212;2023-06-22T04:09:49;101115.78;;;22.58
71630;BMP280;59479;51.902;8.212;2023-06-22T04:12:14;101121.03;;;22.55
71630;BMP280;59479;51.902;8.212;2023-06-22T04:14:40;101125.28;;;22.56
71630;BMP280;59479;51.902;8.212;2023-06-22T04:17:05;101132.03;;;22.57
71630;BMP280;59479;51.902;8.212;2023-06-22T04:19:30;101127.84;;;22.56
71630;BMP280;59479;51.902;8.212;2023-06-22T04:21:56;101132.03;;;22.57
71630;BMP280;59479;51.902;8.212;2023-06-22T04:24:21;101124.34;;;22.57
71630;BMP280;59479;51.902;8.212;2023-06-22T04:26:47;101127.06;;;22.54
71630;BMP280;59479;51.902;8.212;2023-06-22T04:29:13;101126.97;;;22.55
71630;BMP280;59479;51.902;8.212;2023-06-22T04:31:38;101121.16;;;22.52
71630;BMP280;59479;51.902;8.212;2023-06-22T04:34:04;101123.66;;;22.53
71630;BMP280;59479;51.902;8.212;2023-06-22T04:36:34;101122.13;;;22.49
71630;BMP280;59479;51.902;8.212;2023-06-22T04:39:04;101120.09;;;22.57
71630;BMP280;59479;51.902;8.212;2023-06-22T04:41:29;101120.91;;;22.58
71630;BMP280;59479;51.902;8.212;2023-06-22T04:43:55;101112.19;;;22.62
71630;BMP280;59479;51.902;8.212;2023-06-22T04:46:25;101121.56;;;22.63
71630;BMP280;59479;51.902;8.212;2023-06-22T04:48:50;101117.19;;;22.65
71630;BMP280;59479;51.902;8.212;2023-06-22T04:51:15;101125.53;;;22.70
71630;BMP280;59479;51.902;8.212;2023-06-22T04:53:41;101124.94;;;22.63
71630;BMP280;59479;51.902;8.212;2023-06-22T04:56:06;101128.22;;;22.67
71630;BMP280;59479;51.902;8.212;2023-06-22T04:58:31;101116.63;;;22.58
71630;BMP280;59479;51.902;8.212;2023-06-22T05:00:57;101123.34;;;22.61
71630;BMP280;59479;51.902;8.212;2023-06-22T05:03:24;101115.59;;;22.62
71630;BMP280;59479;51.902;8.212;2023-06-22T05:05:51;101104.72;;;22.57
71630;BMP280;59479;51.902;8.212;2023-06-22T05:08:17;101107.13;;;22.60
71630;BMP280;59479;51.902;8.212;2023-06-22T05:10:43;101103.63;;;22.63
71630;BMP280;59479;51.902;8.212;2023-06-22T05:13:08;101096.97;;;22.59
71630;BMP280;59479;51.902;8.212;2023-06-22T05:15:33;101095.28;;;22.58
71630;BMP280;59479;51.902;8.212;2023-06-22T05:18:05;101098.75;;;22.57
71630;BMP280;59479;51.902;8.212;2023-06-22T05:20:30;101103.03;;;22.56
71630;BMP280;59479;51.902;8.212;2023-06-22T05:22:56;101102.69;;;22.64
71630;BMP280;59479;51.902;8.212;2023-06-22T05:25:21;101094.13;;;22.65
71630;BMP280;59479;51.902;8.212;2023-06-22T05:27:46;101095.75;;;22.67
71630;BMP280;59479;51.902;8.212;2023-06-22T05:30:12;101099.72;;;22.74
71630;BMP280;59479;51.902;8.212;2023-06-22T05:32:38;101101.44;;;22.74
71630;BMP280;59479;51.902;8.212;2023-06-22T05:35:03;101086.06;;;22.74
71630;BMP280;59479;51.902;8.212;2023-06-22T05:37:32;101099.66;;;22.76
71630;BMP280;59479;51.902;8.212;2023-06-22T05:39:57;101098.75;;;22.77
71630;BMP280;59479;51.902;8.212;2023-06-22T05:42:23;101101.38;;;22.75
71630;BMP280;59479;51.902;8.212;2023-06-22T05:44:50;101100.38;;;22.79
71630;BMP280;59479;51.902;8.212;2023-06-22T05:47:16;101104.63;;;22.78
71630;BMP280;59479;51.902;8.212;2023-06-22T05:49:41;101102.72;;;22.83
71630;BMP280;59479;51.902;8.212;2023-06-22T05:52:07;101105.03;;;22.89
71630;BMP280;59479;51.902;8.212;2023-06-22T05:54:32;101105.75;;;22.93
71630;BMP280;59479;51.902;8.212;2023-06-22T05:56:57;101106.47;;;22.96
71630;BMP280;59479;51.902;8.212;2023-06-22T05:59:22;101110.53;;;23.00
71630;BMP280;59479;51.902;8.212;2023-06-22T06:01:48;101103.66;;;23.02
71630;BMP280;59479;51.902;8.212;2023-06-22T06:04:17;101106.97;;;23.04
71630;BMP280;59479;51.902;8.212;2023-06-22T06:06:43;101112.72;;;23.09
71630;BMP280;59479;51.902;8.212;2023-06-22T06:09:08;101110.81;;;23.14
71630;BMP280;59479;51.902;8.212;2023-06-22T06:11:34;101111.69;;;23.13
71630;BMP280;59479;51.902;8.212;2023-06-22T06:13:59;101114.06;;;23.18
71630;BMP280;59479;51.902;8.212;2023-06-22T06:16:24;101114.81;;;23.20
71630;BMP280;59479;51.902;8.212;2023-06-22T06:18:50;101112.88;;;23.24
71630;BMP280;59479;51.902;8.212;2023-06-22T06:21:16;101118.78;;;23.26
71630;BMP280;59479;51.902;8.212;2023-06-22T06:23:41;101114.22;;;23.33
71630;BMP280;59479;51.902;8.212;2023-06-22T06:26:07;101115.91;;;23.34
71630;BMP280;59479;51.902;8.212;2023-06-22T06:28:32;101113.09;;;23.38
71630;BMP280;59479;51.902;8.212;2023-06-22T06:30:59;101107.03;;;23.41
71630;BMP280;59479;51.902;8.212;2023-06-22T06:33:24;101106.97;;;23.42
71630;BMP280;59479;51.902;8.212;2023-06-22T06:35:50;101105.97;;;23.45
71630;BMP280;59479;51.902;8.212;2023-06-22T06:38:15;101111.94;;;23.45
71630;BMP280;59479;51.902;8.212;2023-06-22T06:40:40;101112.56;;;23.50
71630;BMP280;59479;51.902;8.212;2023-06-22T06:43:06;101116.88;;;23.50
71630;BMP280;59479;51.902;8.212;2023-06-22T06:45:31;101117.63;;;23.52
71630;BMP280;59479;51.902;8.212;2023-06-22T06:47:58;101122.56;;;23.56
71630;BMP280;59479;51.902;8.212;2023-06-22T06:50:23;101124.03;;;23.62
71630;BMP280;59479;51.902;8.212;2023-06-22T06:52:49;101120.75;;;23.58
71630;BMP280;59479;51.902;8.212;2023-06-22T06:55:15;101121.06;;;23.70
71630;BMP280;59479;51.902;8.212;2023-06-22T06:57:42;101120.03;;;23.74
71630;BMP280;59479;51.902;8.212;2023-06-22T07:00:09;101115.38;;;23.82
71630;BMP280;59479;51.902;8.212;2023-06-22T07:02:38;101112.94;;;23.79
71630;BMP280;59479;51.902;8.212;2023-06-22T07:05:04;101119.66;;;23.82
71630;BMP280;59479;51.902;8.212;2023-06-22T07:07:30;101116.75;;;23.89
71630;BMP280;59479;51.902;8.212;2023-06-22T07:09:56;101113.06;;;23.95
71630;BMP280;59479;51.902;8.212;2023-06-22T07:12:21;101117.06;;;24.00
71630;BMP280;59479;51.902;8.212;2023-06-22T07:14:46;101108.47;;;24.01
71630;BMP280;59479;51.902;8.212;2023-06-22T07:17:12;101103.94;;;24.06
71630;BMP280;59479;51.902;8.212;2023-06-22T07:19:37;101122.69;;;24.08
71630;BMP280;59479;51.902;8.212;2023-06-22T07:22:02;101113.84;;;24.13
71630;BMP280;59479;51.902;8.212;2023-06-22T07:24:28;101110.53;;;24.11
71630;BMP280;59479;51.902;8.212;2023-06-22T07:26:53;101099.16;;;24.17
71630;BMP280;59479;51.902;8.212;2023-06-22T07:29:20;101107.00;;;24.14
71630;BMP280;59479;51.902;8.212;2023-06-22T07:31:46;101107.75;;;24.16
71630;BMP280;59479;51.902;8.212;2023-06-22T07:34:12;101102.47;;;24.19
71630;BMP280;59479;51.902;8.212;2023-06-22T07:36:37;101097.25;;;24.20
71630;BMP280;59479;51.902;8.212;2023-06-22T07:41:51;101086.00;;;24.23
71630;BMP280;59479;51.902;8.212;2023-06-22T07:44:16;101090.72;;;24.32
71630;BMP280;59479;51.902;8.212;2023-06-22T07:46:41;101093.88;;;24.37
71630;BMP280;59479;51.902;8.212;2023-06-22T07:49:07;101094.81;;;24.36
71630;BMP280;59479;51.902;8.212;2023-06-22T07:51:33;101088.47;;;24.43
71630;BMP280;59479;51.902;8.212;2023-06-22T07:53:59;101090.13;;;24.44
71630;BMP280;59479;51.902;8.212;2023-06-22T07:56:24;101077.03;;;24.48
71630;BMP280;59479;51.902;8.212;2023-06-22T07:58:50;101079.06;;;24.58
71630;BMP280;59479;51.902;8.212;2023-06-22T08:01:16;101079.00;;;24.60
71630;BMP280;59479;51.902;8.212;2023-06-22T08:03:42;101080.28;;;24.68
71630;BMP280;59479;51.902;8.212;2023-06-22T08:06:07;101081.06;;;24.70
71630;BMP280;59479;51.902;8.212;2023-06-22T08:08:34;101079.81;;;24.77
71630;BMP280;59479;51.902;8.212;2023-06-22T08:11:00;101074.53;;;24.80
71630;BMP280;59479;51.902;8.212;2023-06-22T08:13:25;101069.28;;;24.82
71630;BMP280;59479;51.902;8.212;2023-06-22T08:15:50;101067.72;;;24.96
71630;BMP280;59479;51.902;8.212;2023-06-22T08:18:16;101059.50;;;25.05
71630;BMP280;59479;51.902;8.212;2023-06-22T08:20:42;101057.72;;;25.07
71630;BMP280;59479;51.902;8.212;2023-06-22T08:23:07;101050.25;;;25.18
71630;BMP280;59479;51.902;8.212;2023-06-22T08:25:33;101043.63;;;25.29
71630;BMP280;59479;51.902;8.212;2023-06-22T08:27:59;101042.72;;;25.30
71630;BMP280;59479;51.902;8.212;2023-06-22T08:30:25;101045.63;;;25.39
71630;BMP280;59479;51.902;8.212;2023-06-22T08:32:50;101041.78;;;25.46
71630;BMP280;59479;51.902;8.212;2023-06-22T08:35:15;101034.00;;;25.63
71630;BMP280;59479;51.902;8.212;2023-06-22T08:37:41;101034.09;;;25.77
71630;BMP280;59479;51.902;8.212;2023-06-22T08:40:08;101036.25;;;25.84
71630;BMP280;59479;51.902;8.212;2023-06-22T08:42:35;101032.16;;;25.96
71630;BMP280;59479;51.902;8.212;2023-06-22T08:45:01;101025.72;;;26.03
71630;BMP280;59479;51.902;8.212;2023-06-22T08:47:29;101019.88;;;26.15
71630;BMP280;59479;51.902;8.212;2023-06-22T08:49:54;101023.63;;;26.24
71630;BMP280;59479;51.902;8.212;2023-06-22T08:52:20;101014.19;;;26.39
71630;BMP280;59479;51.902;8.212;2023-06-22T08:54:46;101018.53;;;26.52
71630;BMP280;59479;51.902;8.212;2023-06-22T08:57:12;101012.81;;;26.61
71630;BMP280;59479;51.902;8.212;2023-06-22T08:59:37;101012.56;;;26.65
71630;BMP280;59479;51.902;8.212;2023-06-22T09:02:03;101007.56;;;26.76
71630;BMP280;59479;51.902;8.212;2023-06-22T09:04:28;101008.75;;;26.85
71630;BMP280;59479;51.902;8.212;2023-06-22T09:06:54;101002.06;;;26.96
71630;BMP280;59479;51.902;8.212;2023-06-22T09:09:21;100996.38;;;27.05
71630;BMP280;59479;51.902;8.212;2023-06-22T09:11:46;100994.88;;;27.15
71630;BMP280;59479;51.902;8.212;2023-06-22T09:14:12;100986.09;;;27.17
71630;BMP280;59479;51.902;8.212;2023-06-22T09:16:38;101003.91;;;27.22
71630;BMP280;59479;51.902;8.212;2023-06-22T09:19:03;100990.41;;;27.31
71630;BMP280;59479;51.902;8.212;2023-06-22T09:21:29;100985.88;;;27.34
71630;BMP280;59479;51.902;8.212;2023-06-22T09:23:54;100997.50;;;27.27
71630;BMP280;59479;51.902;8.212;2023-06-22T09:26:20;100989.81;;;27.40
71630;BMP280;59479;51.902;8.212;2023-06-22T09:28:46;100985.75;;;27.49
71630;BMP280;59479;51.902;8.212;2023-06-22T09:31:12;100983.25;;;27.62
71630;BMP280;59479;51.902;8.212;2023-06-22T09:33:37;100975.72;;;27.71
71630;BMP280;59479;51.902;8.212;2023-06-22T09:36:06;100966.44;;;27.81
71630;BMP280;59479;51.902;8.212;2023-06-22T09:38:38;100963.91;;;27.93
71630;BMP280;59479;51.902;8.212;2023-06-22T09:41:04;100966.88;;;27.88
71630;BMP280;59479;51.902;8.212;2023-06-22T09:43:31;100962.22;;;27.92
71630;BMP280;59479;51.902;8.212;2023-06-22T09:45:56;100958.13;;;28.02
71630;BMP280;59479;51.902;8.212;2023-06-22T09:48:22;100952.06;;;28.16
71630;BMP280;59479;51.902;8.212;2023-06-22T09:50:47;100948.25;;;28.34
71630;BMP280;59479;51.902;8.212;2023-06-22T09:53:13;100950.75;;;28.35
71630;BMP280;59479;51.902;8.212;2023-06-22T09:55:38;100953.22;;;28.36
71630;BMP280;59479;51.902;8.212;2023-06-22T09:58:03;100944.22;;;28.42
71630;BMP280;59479;51.902;8.212;2023-06-22T10:00:28;100949.47;;;28.53
71630;BMP280;59479;51.902;8.212;2023-06-22T10:02:54;100946.50;;;28.46
71630;BMP280;59479;51.902;8.212;2023-06-22T10:05:21;100956.00;;;28.58
71630;BMP280;59479;51.902;8.212;2023-06-22T10:07:46;100955.00;;;28.73
71630;BMP280;59479;51.902;8.212;2023-06-22T10:10:12;100958.91;;;28.78
71630;BMP280;59479;51.902;8.212;2023-06-22T10:12:48;100952.06;;;28.90
71630;BMP280;59479;51.902;8.212;2023-06-22T10:15:19;100948.25;;;29.06
71630;BMP280;59479;51.902;8.212;2023-06-22T10:17:44;100951.03;;;29.16
71630;BMP280;59479;51.902;8.212;2023-06-22T10:20:10;100953.50;;;29.29
71630;BMP280;59479;51.902;8.212;2023-06-22T10:22:42;100944.41;;;29.47
71630;BMP280;59479;51.902;8.212;2023-06-22T10:25:10;100943.41;;;29.61
71630;BMP280;59479;51.902;8.212;2023-06-22T10:27:36;100943.69;;;29.68
71630;BMP280;59479;51.902;8.212;2023-06-22T10:30:05;100942.31;;;29.75
71630;BMP280;59479;51.902;8.212;2023-06-22T10:32:31;100940.13;;;29.69
71630;BMP280;59479;51.902;8.212;2023-06-22T10:34:56;100931.50;;;29.81
71630;BMP280;59479;51.902;8.212;2023-06-22T10:37:22;100921.97;;;29.82
71630;BMP280;59479;51.902;8.212;2023-06-22T10:39:47;100909.44;;;29.76
71630;BMP280;59479;51.902;8.212;2023-06-22T10:42:13;100905.94;;;29.88
71630;BMP280;59479;51.902;8.212;2023-06-22T10:44:38;100908.09;;;29.94
71630;BMP280;59479;51.902;8.212;2023-06-22T10:47:06;100901.38;;;30.02
71630;BMP280;59479;51.902;8.212;2023-06-22T10:49:31;100900.69;;;30.00
71630;BMP280;59479;51.902;8.212;2023-06-22T10:51:57;100890.19;;;30.02
71630;BMP280;59479;51.902;8.212;2023-06-22T10:54:22;100893.28;;;30.07
71630;BMP280;59479;51.902;8.212;2023-06-22T10:56:47;100892.44;;;30.06
71630;BMP280;59479;51.902;8.212;2023-06-22T10:59:13;100892.31;;;30.07
71630;BMP280;59479;51.902;8.212;2023-06-22T11:01:38;100894.19;;;30.06
71630;BMP280;59479;51.902;8.212;2023-06-22T11:04:03;100889.28;;;30.13
71630;BMP280;59479;51.902;8.212;2023-06-22T11:06:29;100889.03;;;30.16
71630;BMP280;59479;51.902;8.212;2023-06-22T11:08:54;100883.72;;;30.29
71630;BMP280;59479;51.902;8.212;2023-06-22T11:11:20;100876.13;;;30.38
71630;BMP280;59479;51.902;8.212;2023-06-22T11:13:45;100874.69;;;30.34
71630;BMP280;59479;51.902;8.212;2023-06-22T11:16:10;100867.16;;;30.31
71630;BMP280;59479;51.902;8.212;2023-06-22T11:18:36;100871.97;;;30.25
71630;BMP280;59479;51.902;8.212;2023-06-22T11:21:01;100866.88;;;30.23
71630;BMP280;59479;51.902;8.212;2023-06-22T11:23:26;100864.41;;;30.22
71630;BMP280;59479;51.902;8.212;2023-06-22T11:25:53;100866.50;;;30.28
71630;BMP280;59479;51.902;8.212;2023-06-22T11:28:18;100863.72;;;30.20
71630;BMP280;59479;51.902;8.212;2023-06-22T11:30:43;100860.31;;;30.30
71630;BMP280;59479;51.902;8.212;2023-06-22T11:33:09;100857.38;;;30.35
71630;BMP280;59479;51.902;8.212;2023-06-22T11:35:34;100843.31;;;30.37
71630;BMP280;59479;51.902;8.212;2023-06-22T11:37:59;100843.81;;;30.31
71630;BMP280;59479;51.902;8.212;2023-06-22T11:40:25;100841.53;;;30.27
71630;BMP280;59479;51.902;8.212;2023-06-22T11:42:50;100832.31;;;30.23
71630;BMP280;59479;51.902;8.212;2023-06-22T11:45:15;100821.19;;;30.33
71630;BMP280;59479;51.902;8.212;2023-06-22T11:47:42;100814.44;;;30.31
71630;BMP280;59479;51.902;8.212;2023-06-22T11:50:08;100815.50;;;30.28
71630;BMP280;59479;51.902;8.212;2023-06-22T11:52:33;100814.44;;;30.31
71630;BMP280;59479;51.902;8.212;2023-06-22T11:55:01;100814.91;;;30.25
71630;BMP280;59479;51.902;8.212;2023-06-22T11:57:28;100830.97;;;30.30
71630;BMP280;59479;51.902;8.212;2023-06-22T11:59:54;100839.88;;;30.26
71630;BMP280;59479;51.902;8.212;2023-06-22T12:02:19;100849.13;;;30.30
71630;BMP280;59479;51.902;8.212;2023-06-22T12:04:44;100853.94;;;30.34
71630;BMP280;59479;51.902;8.212;2023-06-22T12:07:10;100868.88;;;30.20
71630;BMP280;59479;51.902;8.212;2023-06-22T12:09:35;100864.53;;;30.20
71630;BMP280;59479;51.902;8.212;2023-06-22T12:12:00;100863.59;;;30.21
71630;BMP280;59479;51.902;8.212;2023-06-22T12:14:26;100874.19;;;30.18
71630;BMP280;59479;51.902;8.212;2023-06-22T12:16:51;100878.88;;;30.24
71630;BMP280;59479;51.902;8.212;2023-06-22T12:19:16;100881.59;;;30.12
71630;BMP280;59479;51.902;8.212;2023-06-22T12:21:42;100888.94;;;30.18
71630;BMP280;59479;51.902;8.212;2023-06-22T12:24:10;100885.13;;;30.11
71630;BMP280;59479;51.902;8.212;2023-06-22T12:26:35;100879.84;;;30.02
71630;BMP280;59479;51.902;8.212;2023-06-22T12:29:01;100885.47;;;29.96
71630;BMP280;59479;51.902;8.212;2023-06-22T12:31:26;100875.91;;;29.85
71630;BMP280;59479;51.902;8.212;2023-06-22T12:33:52;100880.28;;;29.85
71630;BMP280;59479;51.902;8.212;2023-06-22T12:36:17;100878.72;;;29.82
71630;BMP280;59479;51.902;8.212;2023-06-22T12:38:42;100875.59;;;29.66
71630;BMP280;59479;51.902;8.212;2023-06-22T12:41:08;100879.22;;;29.53
71630;BMP280;59479;51.902;8.212;2023-06-22T12:43:33;100866.69;;;29.36
71630;BMP280;59479;51.902;8.212;2023-06-22T12:45:59;100853.00;;;29.34
71630;BMP280;59479;51.902;8.212;2023-06-22T12:48:26;100846.47;;;29.18
71630;BMP280;59479;51.902;8.212;2023-06-22T12:50:51;100842.28;;;29.05
71630;BMP280;59479;51.902;8.212;2023-06-22T12:53:16;100829.34;;;28.81
71630;BMP280;59479;51.902;8.212;2023-06-22T12:55:42;100830.91;;;28.72
71630;BMP280;59479;51.902;8.212;2023-06-22T12:58:07;100838.47;;;28.62
71630;BMP280;59479;51.902;8.212;2023-06-22T13:00:32;100852.56;;;28.58
71630;BMP280;59479;51.902;8.212;2023-06-22T13:02:58;100866.19;;;28.60
71630;BMP280;59479;51.902;8.212;2023-06-22T13:05:23;100860.22;;;28.47
71630;BMP280;59479;51.902;8.212;2023-06-22T13:07:49;100864.81;;;28.32
71630;BMP280;59479;51.902;8.212;2023-06-22T13:10:14;100868.13;;;28.09
71630;BMP280;59479;51.902;8.212;2023-06-22T13:12:39;100861.38;;;28.06
71630;BMP280;59479;51.902;8.212;2023-06-22T13:15:05;100855.88;;;27.74
71630;BMP280;59479;51.902;8.212;2023-06-22T13:17:31;100853.81;;;27.79
71630;BMP280;59479;51.902;8.212;2023-06-22T13:19:56;100848.88;;;27.63
71630;BMP280;59479;51.902;8.212;2023-06-22T13:22:32;100840.78;;;27.68
71630;BMP280;59479;51.902;8.212;2023-06-22T13:24:59;100844.19;;;27.56
71630;BMP280;59479;51.902;8.212;2023-06-22T13:27:28;100851.66;;;27.34
71630;BMP280;59479;51.902;8.212;2023-06-22T13:30:18;100857.28;;;27.53
71630;BMP280;59479;51.902;8.212;2023-06-22T13:33:02;100854.50;;;27.56
71630;BMP280;59479;51.902;8.212;2023-06-22T13:36:05;100859.72;;;27.42
71630;BMP280;59479;51.902;8.212;2023-06-22T13:38:59;100864.09;;;27.15
71630;BMP280;59479;51.902;8.212;2023-06-22T13:41:51;100853.69;;;27.03
71630;BMP280;59479;51.902;8.212;2023-06-22T13:44:28;100819.94;;;26.94
71630;BMP280;59479;51.902;8.212;2023-06-22T13:47:02;100761.56;;;26.79
71630;BMP280;59479;51.902;8.212;2023-06-22T13:49:37;100722.59;;;26.57
71630;BMP280;59479;51.902;8.212;2023-06-22T13:52:05;100696.34;;;26.38
71630;BMP280;59479;51.902;8.212;2023-06-22T13:54:35;100705.75;;;26.25
71630;BMP280;59479;51.902;8.212;2023-06-22T13:57:01;100708.59;;;26.21
71630;BMP280;59479;51.902;8.212;2023-06-22T13:59:26;100716.53;;;26.04
71630;BMP280;59479;51.902;8.212;2023-06-22T14:01:53;100733.44;;;26.08
71630;BMP280;59479;51.902;8.212;2023-06-22T14:04:18;100746.81;;;26.01
71630;BMP280;59479;51.902;8.212;2023-06-22T14:06:43;100732.75;;;25.92
71630;BMP280;59479;51.902;8.212;2023-06-22T14:09:09;100725.28;;;25.88